Rechercher aéroport 
image banner adimage banner adimage banner ad
image banner ad

KRNM - Ramona

Situé à Ramona, United States

ICAO - RNM, IATA -

Données fournies par Airmate  

Information générale

Coordonnées: N33°2'21" W116°54'55"
Élévation : 1395 feet MSL.
Variation magnétique : 12° East
Voir autres Aéroports à California

Données opérationnelles

Special qualification required
Heure actuelle UTC:
Heure actuelle locale:
Météo
METAR: KRNM 251600Z 32003KT 7SM FEW007 FEW011 19/17 A3002 RMK AO2 T01940167
Voir NOTAMs / SUP AIP / TFR affectant cet aéroport [VIEW]
Fréquences de communication: [VIEW]

Pistes:

Identifiant RWYQFULongueur (ft)Largeur (ft)SurfaceLDA (ft)
0999°5001150ASPH
27279°5001150ASPH

Coordonnées de l'aéroport

Adresse: Ramona United States

Autres services d'aviation

Écoles de pilotage

Cruiseair Aviation, Inc.

Cruiseair Aviation, Inc.

Jimmy Carter's Flight School

Jimmy Carter's Flight School
flyjcfs@yahoo.com+1(760)271-8806

Plus One Flyers - Rnm

Plus One Flyers - Rnm

Julie Keane Aviation

Julie Keane Aviation
jkaviation@gmail.com+1(760)703-1967

Vue satellite de KRNM